createdAt,value
2019-03-25T00:00:01.089Z,5.25
2019-03-25T00:01:18.063Z,4.95
2019-03-25T00:02:26.875Z,5.37
2019-03-25T00:03:32.588Z,4.60
2019-03-25T00:04:38.685Z,4.55
2019-03-25T00:05:44.470Z,5.08
2019-03-25T00:06:50.095Z,4.85
2019-03-25T00:07:55.729Z,4.72
2019-03-25T00:09:05.267Z,5.05
2019-03-25T00:10:08.961Z,5.50
2019-03-25T00:11:14.656Z,4.80
2019-03-25T00:12:20.316Z,3.95
2019-03-25T00:13:26.080Z,4.62
2019-03-25T00:14:31.690Z,4.40
2019-03-25T00:15:37.843Z,5.20
2019-03-25T00:16:43.389Z,4.67
2019-03-25T00:17:49.057Z,4.42
2019-03-25T00:18:54.922Z,4.25
2019-03-25T00:20:00.625Z,5.10
2019-03-25T00:21:06.413Z,4.47
2019-03-25T00:22:11.983Z,4.80
2019-03-25T00:23:17.473Z,4.90
2019-03-25T00:24:23.090Z,4.17
2019-03-25T00:25:28.779Z,5.17
2019-03-25T00:26:34.783Z,4.97
2019-03-25T00:27:40.377Z,4.80
2019-03-25T00:28:46.093Z,4.42
2019-03-25T00:29:53.936Z,5.00
2019-03-25T00:30:59.714Z,4.22
2019-03-25T00:32:05.500Z,5.58
2019-03-25T00:33:11.471Z,4.55
2019-03-25T00:34:17.003Z,4.55
2019-03-25T00:35:22.608Z,4.55
2019-03-25T00:36:28.233Z,4.47
2019-03-25T00:37:33.862Z,4.60
2019-03-25T00:38:39.367Z,4.78
2019-03-25T00:39:45.338Z,4.83
2019-03-25T00:40:50.995Z,5.20
2019-03-25T00:41:56.860Z,4.80
2019-03-25T00:43:02.522Z,5.83
2019-03-25T00:44:08.020Z,4.70
2019-03-25T00:45:14.142Z,5.25
2019-03-25T00:46:19.783Z,4.65
2019-03-25T00:47:25.456Z,5.67
2019-03-25T00:48:31.192Z,4.58
2019-03-25T00:49:36.774Z,4.83
2019-03-25T00:50:42.465Z,5.47
2019-03-25T00:51:48.110Z,4.35
2019-03-25T00:52:53.637Z,5.05
2019-03-25T00:53:59.314Z,4.42
2019-03-25T00:55:04.995Z,5.20
2019-03-25T00:56:10.632Z,5.47
2019-03-25T00:57:16.530Z,4.92
2019-03-25T00:58:22.233Z,5.53
2019-03-25T00:59:28.161Z,4.80
2019-03-25T01:00:34.005Z,5.67
2019-03-25T01:01:39.745Z,4.90
2019-03-25T01:02:48.401Z,5.90
2019-03-25T01:03:54.133Z,5.85
2019-03-25T01:04:59.835Z,6.22
2019-03-25T01:06:05.509Z,5.10
2019-03-25T01:07:11.583Z,5.90
2019-03-25T01:08:17.211Z,6.50
2019-03-25T01:09:22.808Z,5.35
2019-03-25T01:10:28.526Z,5.80
2019-03-25T01:11:34.209Z,5.97
2019-03-25T01:12:39.872Z,5.33
2019-03-25T01:13:45.389Z,5.30
2019-03-25T01:14:50.917Z,5.45
2019-03-25T01:15:56.652Z,5.17
2019-03-25T01:17:00.701Z,6.37
2019-03-25T01:18:16.315Z,5.10
2019-03-25T01:19:13.487Z,6.65
2019-03-25T01:20:19.365Z,6.87
2019-03-25T01:21:24.933Z,6.22
2019-03-25T01:22:30.690Z,6.85
2019-03-25T01:23:36.579Z,5.22
2019-03-25T01:24:42.604Z,5.70
2019-03-25T01:25:48.152Z,6.78
2019-03-25T01:26:53.806Z,5.03
2019-03-25T01:27:59.462Z,6.12
2019-03-25T01:29:05.345Z,5.45
2019-03-25T01:30:11.468Z,5.35
2019-03-25T01:31:17.070Z,5.55
2019-03-25T01:32:22.674Z,6.70
2019-03-25T01:33:28.385Z,5.40
2019-03-25T01:34:34.073Z,6.60
2019-03-25T01:35:40.665Z,5.47
2019-03-25T01:36:46.558Z,5.75
2019-03-25T01:37:52.165Z,5.45
2019-03-25T01:38:57.891Z,5.17
2019-03-25T01:40:05.160Z,5.58
2019-03-25T01:41:11.192Z,6.28
2019-03-25T01:42:17.150Z,4.92
2019-03-25T01:43:22.716Z,5.20
2019-03-25T01:44:28.333Z,6.00
2019-03-25T01:45:36.427Z,7.10
2019-03-25T01:46:42.495Z,6.10
2019-03-25T01:47:48.194Z,5.35
2019-03-25T01:48:53.841Z,5.50
2019-03-25T01:49:59.461Z,4.75
2019-03-25T01:51:05.311Z,4.95
2019-03-25T01:52:10.987Z,5.75
2019-03-25T01:53:16.649Z,5.08
2019-03-25T01:54:23.992Z,5.00
2019-03-25T01:55:29.884Z,4.75
2019-03-25T01:56:35.421Z,5.75
2019-03-25T01:57:40.964Z,6.05
2019-03-25T01:58:46.662Z,5.53
2019-03-25T01:59:52.371Z,5.60
2019-03-25T02:00:58.034Z,5.20
2019-03-25T02:02:03.737Z,5.70
2019-03-25T02:03:09.550Z,5.30
2019-03-25T02:04:15.225Z,4.83
2019-03-25T02:05:21.110Z,5.00
2019-03-25T02:06:26.738Z,4.60
2019-03-25T02:07:32.333Z,5.47
2019-03-25T02:08:38.983Z,6.12
2019-03-25T02:09:44.698Z,4.75
2019-03-25T02:10:50.597Z,5.62
2019-03-25T02:11:56.155Z,5.75
2019-03-25T02:13:01.831Z,5.35
2019-03-25T02:14:07.462Z,5.20
2019-03-25T02:15:13.137Z,4.80
2019-03-25T02:16:18.762Z,5.28
2019-03-25T02:17:24.340Z,5.40
2019-03-25T02:18:30.151Z,4.97
2019-03-25T02:19:35.670Z,6.47
2019-03-25T02:20:41.219Z,5.17
2019-03-25T02:21:46.816Z,6.35
2019-03-25T02:22:52.640Z,5.80
2019-03-25T02:23:58.457Z,5.70
2019-03-25T02:25:04.191Z,5.85
2019-03-25T02:26:09.829Z,5.62
2019-03-25T02:27:18.615Z,6.28
2019-03-25T02:28:24.981Z,5.80
2019-03-25T02:29:30.550Z,4.97
2019-03-25T02:30:36.534Z,5.80
2019-03-25T02:31:42.605Z,6.47
2019-03-25T02:32:48.141Z,5.42
2019-03-25T02:33:54.133Z,5.87
2019-03-25T02:34:59.852Z,5.62
2019-03-25T02:36:05.704Z,5.78
2019-03-25T02:37:12.013Z,6.92
2019-03-25T02:38:18.261Z,6.40
2019-03-25T02:39:23.966Z,6.12
2019-03-25T02:40:29.613Z,6.70
2019-03-25T02:41:35.304Z,5.70
2019-03-25T02:42:40.925Z,6.42
2019-03-25T02:43:46.580Z,7.30
2019-03-25T02:44:52.190Z,6.72
2019-03-25T02:46:08.772Z,6.35
2019-03-25T02:47:14.350Z,6.40
2019-03-25T02:48:20.053Z,6.08
2019-03-25T02:49:25.811Z,6.20
2019-03-25T02:50:31.434Z,5.85
2019-03-25T02:51:37.376Z,6.50
2019-03-25T02:52:43.074Z,6.42
2019-03-25T02:53:48.628Z,5.80
2019-03-25T02:54:54.618Z,6.60
2019-03-25T02:56:00.292Z,5.95
2019-03-25T02:57:06.204Z,6.35
2019-03-25T02:58:11.782Z,7.40
2019-03-25T02:59:17.700Z,6.55
2019-03-25T03:00:34.571Z,6.45
2019-03-25T03:01:40.804Z,6.10
2019-03-25T03:02:46.663Z,6.22
2019-03-25T03:03:52.428Z,5.83
2019-03-25T03:04:58.082Z,6.10
2019-03-25T03:06:05.676Z,6.70
2019-03-25T03:07:11.258Z,6.95
2019-03-25T03:08:17.345Z,6.50
2019-03-25T03:09:22.843Z,6.03
2019-03-25T03:10:28.470Z,7.05
2019-03-25T03:11:33.985Z,6.12
2019-03-25T03:12:39.611Z,6.20
2019-03-25T03:13:45.250Z,7.12
2019-03-25T03:14:50.798Z,6.42
2019-03-25T03:15:56.803Z,7.00
2019-03-25T03:17:02.671Z,6.08
2019-03-25T03:18:08.286Z,7.72
2019-03-25T03:19:14.024Z,6.42
2019-03-25T03:20:19.777Z,6.65
2019-03-25T03:21:25.765Z,6.15
2019-03-25T03:22:31.692Z,7.10
2019-03-25T03:23:37.405Z,6.83
2019-03-25T03:24:43.411Z,6.03
2019-03-25T03:25:57.274Z,6.60
2019-03-25T03:26:56.722Z,7.00
2019-03-25T03:28:02.615Z,6.75
2019-03-25T03:29:08.278Z,6.40
2019-03-25T03:30:14.563Z,6.15
2019-03-25T03:31:20.204Z,6.40
2019-03-25T03:32:25.916Z,6.65
2019-03-25T03:33:31.693Z,7.10
2019-03-25T03:34:37.348Z,6.92
2019-03-25T03:35:46.311Z,6.70
2019-03-25T03:36:50.575Z,6.33
2019-03-25T03:37:56.157Z,6.08
2019-03-25T03:39:01.684Z,7.00
2019-03-25T03:40:07.491Z,6.08
2019-03-25T03:41:13.157Z,7.05
2019-03-25T03:42:20.529Z,6.70
2019-03-25T03:43:26.273Z,7.08
2019-03-25T03:44:32.188Z,6.45
2019-03-25T03:45:37.776Z,6.20
2019-03-25T03:46:43.770Z,6.67
2019-03-25T03:47:49.433Z,6.10
2019-03-25T03:48:55.068Z,5.83
2019-03-25T03:50:00.684Z,6.20
2019-03-25T03:51:06.413Z,7.12
2019-03-25T03:52:13.202Z,7.00
2019-03-25T03:53:19.260Z,6.75
2019-03-25T03:54:25.380Z,5.65
2019-03-25T03:55:31.460Z,6.90
2019-03-25T03:56:37.603Z,5.90
2019-03-25T03:57:44.482Z,6.12
2019-03-25T03:58:50.200Z,7.33
2019-03-25T03:59:56.928Z,6.60
2019-03-25T04:01:04.282Z,6.30
2019-03-25T04:02:09.849Z,7.15
2019-03-25T04:03:15.430Z,5.95
2019-03-25T04:04:21.144Z,7.08
2019-03-25T04:05:26.802Z,6.75
2019-03-25T04:06:32.373Z,7.20
2019-03-25T04:07:38.739Z,6.87
2019-03-25T04:08:44.613Z,6.55
2019-03-25T04:09:50.506Z,7.15
2019-03-25T04:10:56.221Z,7.42
2019-03-25T04:12:02.210Z,7.50
2019-03-25T04:13:07.799Z,7.17
2019-03-25T04:14:13.445Z,7.40
2019-03-25T04:15:26.104Z,6.62
2019-03-25T04:16:31.786Z,6.10
2019-03-25T04:17:37.460Z,7.50
2019-03-25T04:18:43.019Z,7.08
2019-03-25T04:19:48.834Z,6.28
2019-03-25T04:20:54.342Z,7.05
2019-03-25T04:22:00.248Z,7.12
2019-03-25T04:23:05.975Z,6.67
2019-03-25T04:24:11.859Z,7.30
2019-03-25T04:25:17.464Z,7.47
2019-03-25T04:26:28.905Z,6.22
2019-03-25T04:27:30.279Z,6.55
2019-03-25T04:28:36.141Z,6.30
2019-03-25T04:29:41.630Z,7.17
2019-03-25T04:30:47.308Z,6.62
2019-03-25T04:31:52.909Z,6.08
2019-03-25T04:32:58.523Z,4.55
2019-03-25T04:34:04.103Z,5.45
2019-03-25T04:35:10.277Z,5.10
2019-03-25T04:36:16.209Z,4.53
2019-03-25T04:37:22.589Z,5.30
2019-03-25T04:38:28.227Z,5.50
2019-03-25T04:39:33.882Z,4.37
2019-03-25T04:40:39.933Z,4.05
2019-03-25T04:41:45.791Z,4.58
2019-03-25T04:42:51.475Z,4.15
2019-03-25T04:43:57.133Z,4.80
2019-03-25T04:45:03.146Z,4.37
2019-03-25T04:46:09.114Z,4.28
2019-03-25T04:47:14.728Z,5.10
2019-03-25T04:48:20.493Z,4.45
2019-03-25T04:49:26.110Z,4.50
2019-03-25T04:50:31.772Z,3.85
2019-03-25T04:51:37.376Z,3.60
2019-03-25T04:52:48.998Z,3.80
2019-03-25T04:53:54.704Z,4.37
2019-03-25T04:55:00.269Z,3.75
2019-03-25T04:56:06.224Z,2.90
2019-03-25T04:57:11.911Z,4.33
2019-03-25T04:58:17.522Z,3.25
2019-03-25T04:59:23.044Z,3.25
2019-03-25T05:00:36.298Z,3.85
2019-03-25T05:01:41.942Z,3.50
2019-03-25T05:02:47.520Z,3.45
2019-03-25T05:03:53.145Z,3.22
2019-03-25T05:04:58.831Z,3.27
2019-03-25T05:06:04.398Z,4.08
2019-03-25T05:07:10.086Z,2.70
2019-03-25T05:08:16.163Z,3.80
2019-03-25T05:09:21.781Z,2.92
2019-03-25T05:10:27.375Z,3.02
2019-03-25T05:11:33.011Z,3.12
2019-03-25T05:12:38.575Z,2.70
2019-03-25T05:13:44.443Z,3.30
2019-03-25T05:14:50.153Z,4.80
2019-03-25T05:15:55.829Z,3.42
2019-03-25T05:17:01.530Z,3.00
2019-03-25T05:18:07.068Z,2.60
2019-03-25T05:19:12.979Z,2.70
2019-03-25T05:20:18.558Z,3.05
2019-03-25T05:21:24.426Z,2.30
2019-03-25T05:22:30.337Z,2.45
2019-03-25T05:23:36.004Z,3.05
2019-03-25T05:24:41.648Z,2.55
2019-03-25T05:25:47.258Z,2.42
2019-03-25T05:26:52.889Z,2.50
2019-03-25T05:27:58.698Z,2.70
2019-03-25T05:29:04.281Z,4.08
2019-03-25T05:30:10.137Z,3.05
2019-03-25T05:31:16.050Z,2.80
2019-03-25T05:32:22.031Z,2.33
2019-03-25T05:33:27.649Z,2.58
2019-03-25T05:34:33.276Z,2.45
2019-03-25T05:35:39.024Z,2.65
2019-03-25T05:36:44.570Z,2.72
2019-03-25T05:37:50.150Z,3.15
2019-03-25T05:38:56.201Z,4.10
2019-03-25T05:40:02.187Z,2.55
2019-03-25T05:41:07.862Z,2.58
2019-03-25T05:42:13.845Z,4.03
2019-03-25T05:43:21.153Z,2.62
2019-03-25T05:44:27.085Z,2.50
2019-03-25T05:45:32.956Z,3.25
2019-03-25T05:46:38.950Z,2.30
2019-03-25T05:47:44.656Z,2.25
2019-03-25T05:48:50.130Z,2.98
2019-03-25T05:49:56.164Z,2.60
2019-03-25T05:51:01.686Z,2.50
2019-03-25T05:52:07.290Z,2.42
2019-03-25T05:53:12.836Z,2.60
2019-03-25T05:54:18.405Z,3.27
2019-03-25T05:55:24.459Z,3.02
2019-03-25T05:56:30.120Z,2.65
2019-03-25T05:57:35.852Z,2.70
2019-03-25T05:58:41.260Z,2.70
2019-03-25T05:59:47.138Z,3.40
2019-03-25T06:00:53.169Z,2.40
2019-03-25T06:01:58.773Z,3.30
2019-03-25T06:03:04.450Z,3.00
2019-03-25T06:04:10.095Z,3.12
2019-03-25T06:05:15.829Z,2.92
2019-03-25T06:06:21.526Z,3.25
2019-03-25T06:07:27.192Z,2.75
2019-03-25T06:08:32.831Z,3.50
2019-03-25T06:09:38.794Z,3.08
2019-03-25T06:10:44.794Z,3.83
2019-03-25T06:11:50.782Z,2.55
2019-03-25T06:12:56.732Z,3.33
2019-03-25T06:14:02.321Z,2.98
2019-03-25T06:15:08.845Z,3.17
2019-03-25T06:16:14.539Z,3.22
2019-03-25T06:17:20.232Z,3.92
2019-03-25T06:18:25.908Z,3.65
2019-03-25T06:19:31.541Z,2.95
2019-03-25T06:20:37.226Z,4.55
2019-03-25T06:21:43.219Z,3.42
2019-03-25T06:22:48.733Z,3.40
2019-03-25T06:23:54.305Z,3.25
2019-03-25T06:24:59.892Z,4.33
2019-03-25T06:26:05.971Z,3.58
2019-03-25T06:27:14.483Z,4.00
2019-03-25T06:28:19.015Z,3.37
2019-03-25T06:29:24.636Z,3.90
2019-03-25T06:30:30.903Z,3.80
2019-03-25T06:31:36.560Z,4.37
2019-03-25T06:32:42.342Z,3.15
2019-03-25T06:33:47.957Z,4.55
2019-03-25T06:34:53.649Z,4.33
2019-03-25T06:35:59.387Z,4.50
2019-03-25T06:37:05.034Z,4.67
2019-03-25T06:38:10.710Z,3.60
2019-03-25T06:39:16.442Z,4.30
2019-03-25T06:40:22.197Z,3.67
2019-03-25T06:41:28.240Z,3.70
2019-03-25T06:42:34.191Z,4.67
2019-03-25T06:43:39.814Z,4.25
2019-03-25T06:44:45.551Z,4.17
2019-03-25T06:45:51.260Z,4.15
2019-03-25T06:46:57.192Z,3.30
2019-03-25T06:48:02.799Z,4.03
2019-03-25T06:49:08.800Z,4.33
2019-03-25T06:50:14.643Z,3.77
2019-03-25T06:51:20.567Z,4.60
2019-03-25T06:52:26.261Z,4.20
2019-03-25T06:53:32.050Z,3.75
2019-03-25T06:54:37.779Z,4.22
2019-03-25T06:55:43.673Z,4.50
2019-03-25T06:56:49.707Z,4.55
2019-03-25T06:57:55.760Z,4.20
2019-03-25T06:59:01.241Z,3.50
2019-03-25T07:00:08.738Z,4.17
2019-03-25T07:01:14.658Z,3.75
2019-03-25T07:02:20.265Z,4.80
2019-03-25T07:03:26.032Z,3.35
2019-03-25T07:04:32.006Z,3.60
2019-03-25T07:05:37.963Z,3.45
2019-03-25T07:06:43.548Z,4.12
2019-03-25T07:07:49.082Z,4.72
2019-03-25T07:08:54.755Z,4.12
2019-03-25T07:10:00.502Z,3.58
2019-03-25T07:11:06.646Z,4.10
2019-03-25T07:12:12.780Z,4.60
2019-03-25T07:13:18.795Z,4.95
2019-03-25T07:14:24.734Z,4.85
2019-03-25T07:15:31.012Z,3.90
2019-03-25T07:16:36.648Z,4.65
2019-03-25T07:17:42.296Z,3.95
2019-03-25T07:18:47.849Z,3.75
2019-03-25T07:19:53.456Z,7.67
2019-03-25T07:20:59.015Z,4.42
2019-03-25T07:22:04.662Z,4.58
2019-03-25T07:23:10.376Z,4.03
2019-03-25T07:24:15.935Z,4.12
2019-03-25T07:25:21.615Z,6.28
2019-03-25T07:26:27.129Z,4.70
2019-03-25T07:27:37.099Z,4.47
2019-03-25T07:28:39.920Z,4.20
2019-03-25T07:29:45.476Z,4.58
2019-03-25T07:30:51.074Z,4.37
2019-03-25T07:31:57.096Z,4.87
2019-03-25T07:33:03.187Z,4.67
2019-03-25T07:34:08.848Z,4.20
2019-03-25T07:35:14.563Z,5.58
2019-03-25T07:36:20.241Z,5.05
2019-03-25T07:37:26.270Z,4.03
2019-03-25T07:38:31.956Z,5.40
2019-03-25T07:39:37.588Z,4.60
2019-03-25T07:40:43.260Z,5.37
2019-03-25T07:41:48.818Z,4.40
2019-03-25T07:42:54.377Z,4.50
2019-03-25T07:43:59.967Z,3.90
2019-03-25T07:45:06.077Z,3.15
2019-03-25T07:46:12.281Z,5.33
2019-03-25T07:47:18.009Z,4.20
2019-03-25T07:48:24.063Z,5.30
2019-03-25T07:49:29.811Z,4.72
2019-03-25T07:50:35.472Z,4.10
2019-03-25T07:51:41.202Z,4.08
2019-03-25T07:52:47.227Z,3.45
2019-03-25T07:53:53.098Z,3.80
2019-03-25T07:54:58.906Z,4.35
2019-03-25T07:56:04.815Z,4.35
2019-03-25T07:57:11.713Z,3.55
2019-03-25T07:58:17.533Z,3.50
2019-03-25T07:59:23.133Z,3.35
2019-03-25T08:00:28.799Z,4.70
2019-03-25T08:01:34.443Z,3.62
2019-03-25T08:02:40.367Z,3.12
2019-03-25T08:03:46.873Z,4.03
2019-03-25T08:04:52.460Z,3.50
2019-03-25T08:05:58.357Z,4.72
2019-03-25T08:07:04.400Z,4.20
2019-03-25T08:08:10.266Z,5.00
2019-03-25T08:09:16.272Z,3.95
2019-03-25T08:10:47.023Z,4.30
2019-03-25T08:11:52.943Z,3.67
2019-03-25T08:12:58.619Z,6.20
2019-03-25T08:14:04.471Z,3.37
2019-03-25T08:15:10.476Z,5.30
2019-03-25T08:16:16.047Z,4.33
2019-03-25T08:17:22.053Z,4.25
2019-03-25T08:18:28.120Z,3.92
2019-03-25T08:19:33.686Z,4.47
2019-03-25T08:20:39.238Z,4.37
2019-03-25T08:21:44.926Z,4.00
2019-03-25T08:22:50.889Z,3.47
2019-03-25T08:23:56.493Z,4.45
2019-03-25T08:25:02.192Z,5.80
2019-03-25T08:26:08.031Z,4.00
2019-03-25T08:27:13.757Z,4.17
2019-03-25T08:28:19.774Z,4.30
2019-03-25T08:29:25.330Z,3.58
2019-03-25T08:30:31.429Z,3.30
2019-03-25T08:31:37.436Z,3.55
2019-03-25T08:32:43.143Z,4.10
2019-03-25T08:33:48.902Z,3.70
2019-03-25T08:34:54.817Z,3.65
2019-03-25T08:36:00.834Z,5.78
2019-03-25T08:37:06.514Z,3.70
2019-03-25T08:38:12.209Z,3.80
2019-03-25T08:39:17.754Z,3.95
2019-03-25T08:40:23.406Z,3.00
2019-03-25T08:41:29.328Z,3.67
2019-03-25T08:42:35.038Z,4.42
2019-03-25T08:43:40.854Z,3.50
2019-03-25T08:44:46.801Z,3.00
2019-03-25T08:45:52.735Z,4.65
2019-03-25T08:46:58.291Z,3.33
2019-03-25T08:48:03.964Z,4.08
2019-03-25T08:49:11.924Z,2.15
2019-03-25T08:50:17.348Z,3.30
2019-03-25T08:51:23.257Z,3.08
2019-03-25T08:52:29.484Z,3.33
2019-03-25T08:53:35.187Z,1.87
2019-03-25T08:54:41.169Z,2.87
2019-03-25T08:55:46.937Z,3.25
2019-03-25T08:56:52.780Z,2.75
2019-03-25T08:57:58.357Z,2.87
2019-03-25T08:59:03.910Z,2.60
2019-03-25T09:00:10.234Z,4.03
2019-03-25T09:01:15.935Z,2.92
2019-03-25T09:02:21.627Z,2.30
2019-03-25T09:03:27.177Z,2.80
2019-03-25T09:04:32.686Z,2.70
2019-03-25T09:05:38.351Z,2.47
2019-03-25T09:06:44.012Z,2.15
2019-03-25T09:07:49.548Z,2.52
2019-03-25T09:08:55.200Z,2.70
2019-03-25T09:10:00.801Z,2.77
2019-03-25T09:11:07.179Z,2.17
2019-03-25T09:12:13.306Z,1.90
2019-03-25T09:13:18.866Z,1.80
2019-03-25T09:14:24.447Z,1.50
2019-03-25T09:15:30.015Z,1.92
2019-03-25T09:16:38.489Z,2.05
2019-03-25T09:17:44.447Z,1.45
2019-03-25T09:18:50.104Z,2.80
2019-03-25T09:19:55.765Z,3.10
2019-03-25T09:21:01.361Z,1.80
2019-03-25T09:22:07.259Z,2.42
2019-03-25T09:23:12.911Z,1.70
2019-03-25T09:24:18.683Z,2.12
2019-03-25T09:25:24.927Z,2.75
2019-03-25T09:26:30.555Z,2.50
2019-03-25T09:27:36.255Z,3.15
2019-03-25T09:28:42.475Z,4.33
2019-03-25T09:29:48.044Z,2.85
2019-03-25T09:31:20.263Z,3.08
2019-03-25T09:32:25.841Z,2.42
2019-03-25T09:33:31.535Z,2.25
2019-03-25T09:34:37.256Z,2.90
2019-03-25T09:35:42.905Z,1.67
2019-03-25T09:36:48.587Z,3.47
2019-03-25T09:37:54.273Z,1.95
2019-03-25T09:39:00.023Z,3.08
2019-03-25T09:40:06.842Z,2.20
2019-03-25T09:41:12.492Z,2.42
2019-03-25T09:42:18.166Z,2.95
2019-03-25T09:43:23.805Z,3.02
2019-03-25T09:44:29.444Z,2.30
2019-03-25T09:45:35.169Z,2.25
2019-03-25T09:46:41.160Z,1.85
2019-03-25T09:47:46.896Z,1.60
2019-03-25T09:48:52.618Z,2.45
2019-03-25T09:49:58.272Z,2.00
2019-03-25T09:51:04.124Z,2.67
2019-03-25T09:52:09.751Z,1.87
2019-03-25T09:53:15.744Z,3.10
2019-03-25T09:54:21.400Z,2.40
2019-03-25T09:55:27.085Z,3.05
2019-03-25T09:56:32.791Z,2.55
2019-03-25T09:57:38.461Z,3.05
2019-03-25T09:58:44.315Z,3.50
2019-03-25T09:59:50.029Z,2.87
2019-03-25T10:00:56.689Z,3.83
2019-03-25T10:02:02.407Z,2.22
2019-03-25T10:03:08.072Z,1.80
2019-03-25T10:04:14.119Z,3.20
2019-03-25T10:05:19.823Z,2.72
2019-03-25T10:06:25.611Z,2.52
2019-03-25T10:07:31.361Z,2.00
2019-03-25T10:08:36.933Z,2.33
2019-03-25T10:09:42.571Z,2.58
2019-03-25T10:10:48.557Z,2.60
2019-03-25T10:11:54.438Z,2.10
2019-03-25T10:13:00.079Z,2.60
2019-03-25T10:14:06.170Z,1.98
2019-03-25T10:15:12.010Z,3.40
2019-03-25T10:16:18.091Z,2.75
2019-03-25T10:17:24.067Z,2.65
2019-03-25T10:18:30.224Z,1.75
2019-03-25T10:19:36.108Z,2.17
2019-03-25T10:20:41.837Z,3.62
2019-03-25T10:21:47.479Z,2.05
2019-03-25T10:22:53.126Z,1.80
2019-03-25T10:23:59.155Z,1.77
2019-03-25T10:25:05.447Z,1.75
2019-03-25T10:26:11.002Z,1.00
2019-03-25T10:27:16.499Z,1.87
2019-03-25T10:28:22.158Z,1.72
2019-03-25T10:29:27.830Z,1.22
2019-03-25T10:30:33.502Z,2.33
2019-03-25T10:31:39.598Z,2.00
2019-03-25T10:32:46.732Z,1.90
2019-03-25T10:33:52.824Z,2.10
2019-03-25T10:34:58.807Z,1.85
2019-03-25T10:36:04.494Z,2.60
2019-03-25T10:37:10.226Z,2.42
2019-03-25T10:38:19.824Z,1.90
2019-03-25T10:39:23.472Z,3.00
2019-03-25T10:40:29.068Z,1.55
2019-03-25T10:41:34.778Z,2.15
2019-03-25T10:42:40.879Z,2.05
2019-03-25T10:43:46.610Z,1.85
2019-03-25T10:44:52.202Z,2.72
2019-03-25T10:45:57.808Z,1.00
2019-03-25T10:47:03.388Z,1.87
2019-03-25T10:48:09.094Z,1.70
2019-03-25T10:49:16.240Z,1.62
2019-03-25T10:50:22.165Z,1.52
2019-03-25T10:51:27.857Z,1.85
2019-03-25T10:52:33.571Z,1.80
2019-03-25T10:53:39.224Z,1.85
2019-03-25T10:54:45.287Z,1.20
2019-03-25T10:55:51.017Z,2.30
2019-03-25T10:56:56.565Z,1.62
2019-03-25T10:58:02.313Z,2.08
2019-03-25T10:59:08.006Z,2.17
2019-03-25T11:00:14.409Z,1.67
2019-03-25T11:01:20.302Z,2.92
2019-03-25T11:02:25.876Z,2.30
2019-03-25T11:03:31.721Z,1.37
2019-03-25T11:04:37.307Z,2.10
2019-03-25T11:05:42.941Z,2.30
2019-03-25T11:06:48.638Z,2.33
2019-03-25T11:07:54.309Z,1.35
2019-03-25T11:08:59.994Z,1.70
2019-03-25T11:10:06.203Z,2.10
2019-03-25T11:11:11.829Z,2.02
2019-03-25T11:12:17.907Z,2.27
2019-03-25T11:13:23.604Z,2.15
2019-03-25T11:14:29.495Z,3.05
2019-03-25T11:15:35.237Z,2.12
2019-03-25T11:16:40.945Z,2.22
2019-03-25T11:17:46.627Z,2.37
2019-03-25T11:18:52.304Z,2.65
2019-03-25T11:19:57.951Z,2.70
2019-03-25T11:21:03.484Z,2.35
2019-03-25T11:22:09.372Z,2.45
2019-03-25T11:23:14.967Z,2.00
2019-03-25T11:24:21.206Z,2.50
2019-03-25T11:25:26.895Z,3.35
2019-03-25T11:26:32.726Z,2.67
2019-03-25T11:27:38.349Z,3.35
2019-03-25T11:28:43.972Z,2.15
2019-03-25T11:29:49.675Z,1.60
2019-03-25T11:30:59.963Z,1.95
2019-03-25T11:32:05.934Z,2.02
2019-03-25T11:33:11.654Z,1.98
2019-03-25T11:34:17.254Z,2.12
2019-03-25T11:35:22.904Z,2.00
2019-03-25T11:36:28.874Z,1.70
2019-03-25T11:37:34.535Z,1.37
2019-03-25T11:38:40.592Z,1.80
2019-03-25T11:39:46.297Z,1.77
2019-03-25T11:40:51.941Z,2.10
2019-03-25T11:41:57.798Z,1.82
2019-03-25T11:43:03.524Z,2.55
2019-03-25T11:44:09.283Z,2.45
2019-03-25T11:45:15.234Z,2.30
2019-03-25T11:46:21.152Z,2.70
2019-03-25T11:47:26.982Z,2.37
2019-03-25T11:48:32.744Z,2.40
2019-03-25T11:49:38.636Z,1.62
2019-03-25T11:50:44.616Z,2.33
2019-03-25T11:51:50.253Z,3.10
2019-03-25T11:52:56.172Z,1.95
2019-03-25T11:54:01.951Z,2.55
2019-03-25T11:55:08.143Z,1.57
2019-03-25T11:56:13.776Z,2.05
2019-03-25T11:57:19.318Z,2.05
2019-03-25T11:58:25.302Z,2.85
2019-03-25T11:59:30.955Z,2.95
2019-03-25T12:00:36.539Z,2.30
2019-03-25T12:01:42.238Z,1.87
2019-03-25T12:02:47.858Z,2.10
2019-03-25T12:03:53.794Z,2.05
2019-03-25T12:04:59.478Z,2.00
2019-03-25T12:06:05.492Z,2.62
2019-03-25T12:07:11.195Z,1.75
2019-03-25T12:08:16.904Z,2.70
2019-03-25T12:09:22.510Z,1.65
2019-03-25T12:10:28.053Z,3.02
2019-03-25T12:11:33.807Z,1.85
2019-03-25T12:12:39.457Z,2.35
2019-03-25T12:13:45.012Z,2.47
2019-03-25T12:14:50.825Z,2.20
2019-03-25T12:15:56.520Z,2.17
2019-03-25T12:17:02.462Z,1.70
2019-03-25T12:18:08.169Z,1.70
2019-03-25T12:19:14.178Z,2.37
2019-03-25T12:20:19.855Z,1.85
2019-03-25T12:21:25.695Z,1.40
2019-03-25T12:22:31.650Z,1.72
2019-03-25T12:23:37.780Z,1.87
2019-03-25T12:24:43.320Z,2.05
2019-03-25T12:25:49.264Z,2.00
2019-03-25T12:26:55.327Z,2.67
2019-03-25T12:28:00.943Z,2.70
2019-03-25T12:29:06.605Z,2.15
2019-03-25T12:30:12.950Z,2.20
2019-03-25T12:31:18.670Z,2.20
2019-03-25T12:32:24.302Z,3.20
2019-03-25T12:33:30.029Z,3.65
2019-03-25T12:34:35.725Z,2.95
2019-03-25T12:35:41.638Z,1.35
2019-03-25T12:36:47.584Z,1.00
2019-03-25T12:37:53.617Z,1.17
2019-03-25T12:38:59.359Z,0.82
2019-03-25T12:40:07.898Z,1.10
2019-03-25T12:41:13.352Z,1.00
2019-03-25T12:42:19.028Z,0.90
2019-03-25T12:43:24.624Z,2.40
2019-03-25T12:44:30.572Z,1.75
2019-03-25T12:45:36.252Z,1.30
2019-03-25T12:46:41.932Z,1.00
2019-03-25T12:47:47.618Z,1.25
2019-03-25T12:48:53.248Z,1.47
2019-03-25T12:49:59.461Z,1.15
2019-03-25T12:51:05.432Z,1.00
2019-03-25T12:52:11.301Z,1.62
2019-03-25T12:53:17.154Z,1.15
2019-03-25T12:54:22.735Z,1.42
2019-03-25T12:55:28.531Z,1.60
2019-03-25T12:56:34.225Z,1.20
2019-03-25T12:57:39.813Z,1.05
2019-03-25T12:58:45.690Z,1.50
2019-03-25T12:59:51.305Z,3.83
2019-03-25T13:00:56.871Z,1.75
2019-03-25T13:02:02.529Z,1.30
2019-03-25T13:03:08.854Z,1.60
2019-03-25T13:04:14.472Z,1.10
2019-03-25T13:05:20.079Z,2.72
2019-03-25T13:06:25.788Z,1.35
2019-03-25T13:07:31.482Z,1.32
2019-03-25T13:08:37.136Z,1.37
2019-03-25T13:09:43.077Z,2.15
2019-03-25T13:10:48.934Z,2.10
2019-03-25T13:11:54.854Z,1.75
2019-03-25T13:13:00.756Z,1.55
2019-03-25T13:14:06.639Z,1.57
2019-03-25T13:15:12.603Z,1.60
2019-03-25T13:16:18.620Z,2.00
2019-03-25T13:17:24.370Z,1.50
2019-03-25T13:18:30.162Z,2.27
2019-03-25T13:19:35.718Z,1.62
2019-03-25T13:20:41.439Z,1.42
2019-03-25T13:21:47.416Z,2.25
2019-03-25T13:22:53.248Z,2.10
2019-03-25T13:23:58.866Z,2.35
2019-03-25T13:25:04.890Z,1.92
2019-03-25T13:26:10.764Z,1.65
2019-03-25T13:27:16.452Z,2.80
2019-03-25T13:28:22.079Z,1.40
2019-03-25T13:29:28.061Z,2.55
2019-03-25T13:30:33.854Z,1.70
2019-03-25T13:31:39.514Z,2.80
2019-03-25T13:32:45.539Z,1.30
2019-03-25T13:33:51.420Z,2.55
2019-03-25T13:34:57.308Z,1.77
2019-03-25T13:36:03.042Z,2.05
2019-03-25T13:37:09.089Z,1.87
2019-03-25T13:38:15.107Z,2.35
2019-03-25T13:39:20.778Z,1.80
2019-03-25T13:40:26.479Z,2.98
2019-03-25T13:41:32.063Z,2.05
2019-03-25T13:42:37.782Z,2.25
2019-03-25T13:43:43.902Z,2.40
2019-03-25T13:44:50.417Z,2.33
2019-03-25T13:46:05.056Z,3.00
2019-03-25T13:47:03.275Z,2.05
2019-03-25T13:48:09.001Z,2.95
2019-03-25T13:49:14.545Z,1.70
2019-03-25T13:50:20.277Z,2.10
2019-03-25T13:51:25.896Z,2.35
2019-03-25T13:52:31.478Z,3.17
2019-03-25T13:53:37.204Z,3.90
2019-03-25T13:54:43.063Z,2.30
2019-03-25T13:55:48.708Z,2.05
2019-03-25T13:56:54.377Z,2.20
2019-03-25T13:58:00.126Z,3.37
2019-03-25T13:59:05.927Z,2.83
2019-03-25T14:00:11.723Z,2.95
2019-03-25T14:01:17.823Z,1.82
2019-03-25T14:02:24.453Z,3.17
2019-03-25T14:03:30.060Z,2.52
2019-03-25T14:04:35.844Z,2.37
2019-03-25T14:05:42.179Z,2.12
2019-03-25T14:06:47.940Z,1.98
2019-03-25T14:07:53.740Z,2.42
2019-03-25T14:08:59.331Z,1.90
2019-03-25T14:10:05.419Z,2.80
2019-03-25T14:11:11.393Z,2.45
2019-03-25T14:12:17.109Z,2.83
2019-03-25T14:13:22.789Z,2.17
2019-03-25T14:14:28.605Z,1.92
2019-03-25T14:15:34.811Z,3.65
2019-03-25T14:16:40.524Z,2.45
2019-03-25T14:17:46.344Z,2.40
2019-03-25T14:18:52.492Z,3.42
2019-03-25T14:19:58.029Z,2.27
2019-03-25T14:21:03.762Z,2.05
2019-03-25T14:22:09.535Z,3.00
2019-03-25T14:23:15.109Z,1.60
2019-03-25T14:24:20.822Z,1.57
2019-03-25T14:25:26.761Z,2.05
2019-03-25T14:26:32.286Z,1.12
2019-03-25T14:27:37.994Z,1.40
2019-03-25T14:28:43.636Z,2.40
2019-03-25T14:29:49.132Z,3.17
2019-03-25T14:30:54.810Z,2.20
2019-03-25T14:32:00.490Z,1.50
2019-03-25T14:33:06.258Z,1.90
2019-03-25T14:34:14.512Z,2.47
2019-03-25T14:35:20.020Z,2.27
2019-03-25T14:36:25.524Z,2.70
2019-03-25T14:37:31.262Z,1.57